createdAt,value
2022-11-15T00:02:05.128Z,6.65
2022-11-15T00:05:10.814Z,6.07
2022-11-15T00:08:16.501Z,6.07
2022-11-15T00:11:23.518Z,5.95
2022-11-15T00:14:29.048Z,5.70
2022-11-15T00:17:35.016Z,5.12
2022-11-15T00:20:40.642Z,6.22
2022-11-15T00:23:46.181Z,5.87
2022-11-15T00:26:53.103Z,5.72
2022-11-15T00:29:58.740Z,5.78
2022-11-15T00:33:05.388Z,6.18
2022-11-15T00:36:11.778Z,5.50
2022-11-15T00:39:17.469Z,6.47
2022-11-15T00:42:24.605Z,5.93
2022-11-15T00:45:30.206Z,6.78
2022-11-15T00:48:35.332Z,6.43
2022-11-15T00:51:41.069Z,5.80
2022-11-15T00:54:46.585Z,5.53
2022-11-15T00:57:53.360Z,6.07
2022-11-15T01:00:58.873Z,5.55
2022-11-15T01:04:04.297Z,6.10
2022-11-15T01:07:09.703Z,6.55
2022-11-15T01:10:15.148Z,6.07
2022-11-15T01:13:21.899Z,5.03
2022-11-15T01:16:27.460Z,5.40
2022-11-15T01:19:32.870Z,6.32
2022-11-15T01:22:38.325Z,6.18
2022-11-15T01:25:43.685Z,5.93
2022-11-15T01:28:50.714Z,5.80
2022-11-15T01:31:56.208Z,5.57
2022-11-15T01:35:01.658Z,6.40
2022-11-15T01:38:07.394Z,5.87
2022-11-15T01:41:19.266Z,6.22
2022-11-15T01:44:42.480Z,5.75
2022-11-15T01:47:52.825Z,5.35
2022-11-15T01:50:58.874Z,5.60
2022-11-15T01:54:08.718Z,4.80
2022-11-15T01:57:15.372Z,5.75
2022-11-15T02:00:22.557Z,5.18
2022-11-15T02:03:43.870Z,6.18
2022-11-15T02:06:51.179Z,6.03
2022-11-15T02:09:58.495Z,5.72
2022-11-15T02:13:04.634Z,5.95
2022-11-15T02:16:18.449Z,4.85
2022-11-15T02:19:42.480Z,5.18
2022-11-15T02:23:02.849Z,5.35
2022-11-15T02:26:32.840Z,5.57
2022-11-15T02:30:06.156Z,6.37
2022-11-15T02:33:24.119Z,6.00
2022-11-15T02:36:39.699Z,5.82
2022-11-15T02:39:51.981Z,5.10
2022-11-15T02:43:19.726Z,5.90
2022-11-15T02:46:44.303Z,5.55
2022-11-15T02:49:54.214Z,5.20
2022-11-15T02:52:59.684Z,5.30
2022-11-15T02:56:05.253Z,5.28
2022-11-15T02:59:24.779Z,6.20
2022-11-15T03:02:48.051Z,5.25
2022-11-15T03:06:06.156Z,6.22
2022-11-15T03:09:19.680Z,5.72
2022-11-15T03:12:32.401Z,5.70
2022-11-15T03:15:42.629Z,5.87
2022-11-15T03:18:52.054Z,5.30
2022-11-15T03:22:01.996Z,5.43
2022-11-15T03:25:11.634Z,5.93
2022-11-15T03:28:22.483Z,5.47
2022-11-15T03:31:51.630Z,5.57
2022-11-15T03:35:01.113Z,4.87
2022-11-15T03:38:17.744Z,4.68
2022-11-15T03:41:30.113Z,5.32
2022-11-15T03:44:43.519Z,4.75
2022-11-15T03:47:53.864Z,5.45
2022-11-15T03:50:59.742Z,4.90
2022-11-15T03:54:07.595Z,5.15
2022-11-15T03:57:13.536Z,5.10
2022-11-15T04:00:19.396Z,4.78
2022-11-15T04:03:24.702Z,5.35
2022-11-15T04:06:30.077Z,5.50
2022-11-15T04:09:58.090Z,4.97
2022-11-15T04:13:05.212Z,4.60
2022-11-15T04:16:11.395Z,4.82
2022-11-15T04:19:34.609Z,4.62
2022-11-15T04:22:57.435Z,4.93
2022-11-15T04:26:08.115Z,5.53
2022-11-15T04:29:31.221Z,4.68
2022-11-15T04:32:38.410Z,5.40
2022-11-15T04:36:05.474Z,4.93
2022-11-15T04:39:11.139Z,5.03
2022-11-15T04:42:18.119Z,4.75
2022-11-15T04:45:26.606Z,5.07
2022-11-15T04:48:31.814Z,5.25
2022-11-15T04:51:37.271Z,4.65
2022-11-15T04:54:43.816Z,5.05
2022-11-15T04:58:00.098Z,5.70
2022-11-15T05:01:09.365Z,5.50
2022-11-15T05:04:23.725Z,4.50
2022-11-15T05:07:29.170Z,5.28
2022-11-15T05:10:34.780Z,5.07
2022-11-15T05:13:41.873Z,4.97
2022-11-15T05:16:47.072Z,4.97
2022-11-15T05:19:52.906Z,5.12
2022-11-15T05:22:58.283Z,5.37
2022-11-15T05:26:09.061Z,4.95
2022-11-15T05:29:16.679Z,4.50
2022-11-15T05:32:23.134Z,5.32
2022-11-15T05:35:33.011Z,4.10
2022-11-15T05:38:38.399Z,4.40
2022-11-15T05:41:46.867Z,4.87
2022-11-15T05:44:53.264Z,4.35
2022-11-15T05:48:02.437Z,5.40
2022-11-15T05:51:09.521Z,4.70
2022-11-15T05:54:15.857Z,4.57
2022-11-15T05:57:21.304Z,4.53
2022-11-15T06:00:28.184Z,6.12
2022-11-15T06:03:33.888Z,4.53
2022-11-15T06:06:39.625Z,4.82
2022-11-15T06:09:45.066Z,4.68
2022-11-15T06:12:58.498Z,4.93
2022-11-15T06:16:05.752Z,4.43
2022-11-15T06:19:11.197Z,4.87
2022-11-15T06:22:16.531Z,4.20
2022-11-15T06:25:22.023Z,4.30
2022-11-15T06:28:30.758Z,4.50
2022-11-15T06:31:38.186Z,4.65
2022-11-15T06:34:43.832Z,5.12
2022-11-15T06:37:49.363Z,4.75
2022-11-15T06:40:54.614Z,4.30
2022-11-15T06:44:00.352Z,3.83
2022-11-15T06:47:07.317Z,4.87
2022-11-15T06:50:12.807Z,4.62
2022-11-15T06:53:18.031Z,4.68
2022-11-15T06:56:23.409Z,4.45
2022-11-15T06:59:28.887Z,4.57
2022-11-15T07:02:35.754Z,4.70
2022-11-15T07:05:41.278Z,4.57
2022-11-15T07:08:47.447Z,4.37
2022-11-15T07:11:53.071Z,4.25
2022-11-15T07:14:58.230Z,4.75
2022-11-15T07:18:05.063Z,4.10
2022-11-15T07:21:12.441Z,4.37
2022-11-15T07:24:18.214Z,4.78
2022-11-15T07:27:23.846Z,4.90
2022-11-15T07:30:30.187Z,4.53
2022-11-15T07:33:37.258Z,4.30
2022-11-15T07:36:42.977Z,4.68
2022-11-15T07:39:48.782Z,4.25
2022-11-15T07:42:58.107Z,4.65
2022-11-15T07:46:10.144Z,4.65
2022-11-15T07:49:17.045Z,4.43
2022-11-15T07:52:22.988Z,4.60
2022-11-15T07:55:30.804Z,4.50
2022-11-15T07:58:36.420Z,4.70
2022-11-15T08:01:42.303Z,3.83
2022-11-15T08:04:49.350Z,3.70
2022-11-15T08:07:57.360Z,4.22
2022-11-15T08:11:03.389Z,4.50
2022-11-15T08:14:08.911Z,4.78
2022-11-15T08:17:14.691Z,4.82
2022-11-15T08:20:21.684Z,4.03
2022-11-15T08:23:26.934Z,4.12
2022-11-15T08:26:32.563Z,4.50
2022-11-15T08:29:38.628Z,4.32
2022-11-15T08:32:44.022Z,4.05
2022-11-15T08:35:50.787Z,3.95
2022-11-15T08:38:56.279Z,4.43
2022-11-15T08:42:01.778Z,4.12
2022-11-15T08:45:08.929Z,4.20
2022-11-15T08:48:14.248Z,3.90
2022-11-15T08:51:20.940Z,3.10
2022-11-15T08:54:26.877Z,3.15
2022-11-15T08:57:32.483Z,3.78
2022-11-15T09:00:37.894Z,3.55
2022-11-15T09:03:43.350Z,3.80
2022-11-15T09:06:51.276Z,3.75
2022-11-15T09:09:57.646Z,3.90
2022-11-15T09:13:03.069Z,3.72
2022-11-15T09:16:08.933Z,4.30
2022-11-15T09:19:15.779Z,4.28
2022-11-15T09:22:23.335Z,3.55
2022-11-15T09:25:29.198Z,3.25
2022-11-15T09:28:35.799Z,3.90
2022-11-15T09:31:41.211Z,3.30
2022-11-15T09:34:46.743Z,3.67
2022-11-15T09:37:56.346Z,3.62
2022-11-15T09:41:23.655Z,3.90
2022-11-15T09:44:51.922Z,3.35
2022-11-15T09:48:36.017Z,3.53
2022-11-15T09:51:30.037Z,3.28
2022-11-15T09:57:47.783Z,3.10
2022-11-15T10:00:46.341Z,3.12
2022-11-15T10:03:38.477Z,3.40
2022-11-15T10:06:27.429Z,3.35
2022-11-15T10:09:22.847Z,3.37
2022-11-15T10:12:14.999Z,3.10
2022-11-15T10:15:06.239Z,2.60
2022-11-15T10:18:09.974Z,2.78
2022-11-15T10:21:01.442Z,3.53
2022-11-15T10:23:48.204Z,2.70
2022-11-15T10:26:35.016Z,3.47
2022-11-15T10:29:27.104Z,3.00
2022-11-15T10:32:15.743Z,2.58
2022-11-15T10:35:19.500Z,2.75
2022-11-15T10:38:08.562Z,2.60
2022-11-15T10:41:09.233Z,2.40
2022-11-15T10:44:10.649Z,2.65
2022-11-15T10:47:37.830Z,2.40
2022-11-15T10:50:32.985Z,2.35
2022-11-15T10:53:25.924Z,2.47
2022-11-15T10:56:17.005Z,2.50
2022-11-15T10:59:03.878Z,2.33
2022-11-15T11:01:51.228Z,2.40
2022-11-15T11:04:51.909Z,2.92
2022-11-15T11:07:41.682Z,2.67
2022-11-15T11:10:50.354Z,2.50
2022-11-15T11:13:37.930Z,2.20
2022-11-15T11:16:47.163Z,2.37
2022-11-15T11:19:59.071Z,2.60
2022-11-15T11:22:59.679Z,2.15
2022-11-15T11:25:55.488Z,2.78
2022-11-15T11:28:38.445Z,2.15
2022-11-15T11:31:22.254Z,1.80
2022-11-15T11:34:00.769Z,2.25
2022-11-15T11:36:41.245Z,2.40
2022-11-15T11:39:26.365Z,1.92
2022-11-15T11:42:04.927Z,2.40
2022-11-15T11:44:41.550Z,2.47
2022-11-15T11:47:13.120Z,2.15
2022-11-15T11:49:46.931Z,1.85
2022-11-15T11:52:19.090Z,2.08
2022-11-15T11:55:05.967Z,2.22
2022-11-15T11:57:44.017Z,1.95
2022-11-15T12:00:22.117Z,1.87
2022-11-15T12:03:10.208Z,1.90
2022-11-15T12:05:42.627Z,1.92
2022-11-15T12:08:28.105Z,2.10
2022-11-15T12:11:05.902Z,2.20
2022-11-15T12:13:37.797Z,1.83
2022-11-15T12:16:14.126Z,1.62
2022-11-15T12:18:46.739Z,2.03
2022-11-15T12:21:28.102Z,1.60
2022-11-15T12:24:05.111Z,1.90
2022-11-15T12:26:39.542Z,2.40
2022-11-15T12:29:14.176Z,1.92
2022-11-15T12:31:46.871Z,1.80
2022-11-15T12:34:32.461Z,1.73
2022-11-15T12:37:00.761Z,2.10
2022-11-15T12:40:06.996Z,1.80
2022-11-15T12:42:43.325Z,1.35
2022-11-15T12:45:28.490Z,1.67
2022-11-15T12:48:14.031Z,1.60
2022-11-15T12:50:59.136Z,2.03
2022-11-15T12:53:31.915Z,1.50
2022-11-15T12:56:25.982Z,1.52
2022-11-15T12:58:58.289Z,1.40
2022-11-15T13:01:59.851Z,1.77
2022-11-15T13:04:30.736Z,1.40
2022-11-15T13:07:04.217Z,1.55
2022-11-15T13:09:55.995Z,1.60
2022-11-15T13:12:54.887Z,1.67
2022-11-15T13:16:00.654Z,1.77
2022-11-15T13:18:38.343Z,1.83
2022-11-15T13:21:38.829Z,1.40
2022-11-15T13:24:14.423Z,1.98
2022-11-15T13:26:42.704Z,1.50
2022-11-15T13:29:19.666Z,1.50
2022-11-15T13:31:50.303Z,1.92
2022-11-15T13:37:32.079Z,1.50
2022-11-15T13:40:20.194Z,1.10
2022-11-15T13:42:48.497Z,1.55
2022-11-15T13:45:19.717Z,1.70
2022-11-15T13:47:56.510Z,1.77
2022-11-15T13:50:28.668Z,1.50
2022-11-15T13:53:00.799Z,1.50
2022-11-15T13:55:30.518Z,1.65
2022-11-15T13:58:01.023Z,1.67
2022-11-15T14:00:39.719Z,1.67
2022-11-15T14:03:18.520Z,2.10
2022-11-15T14:06:03.283Z,1.77
2022-11-15T14:08:32.308Z,1.60
2022-11-15T14:11:17.751Z,1.80
2022-11-15T14:14:06.701Z,1.40
2022-11-15T14:16:37.544Z,1.40
2022-11-15T14:19:09.178Z,1.40
2022-11-15T14:21:38.505Z,1.70
2022-11-15T14:24:17.384Z,1.67
2022-11-15T14:26:46.374Z,1.70
2022-11-15T14:29:25.207Z,1.50
2022-11-15T14:31:53.594Z,1.40
2022-11-15T14:34:23.668Z,1.25
2022-11-15T14:36:52.277Z,1.60
2022-11-15T14:39:20.454Z,1.30
2022-11-15T14:41:50.107Z,1.37
2022-11-15T14:44:51.174Z,1.70
2022-11-15T14:47:20.699Z,1.60
2022-11-15T14:49:50.309Z,1.65
2022-11-15T14:52:32.236Z,1.73
2022-11-15T14:55:03.264Z,1.67
2022-11-15T14:57:32.334Z,1.30
2022-11-15T15:00:00.832Z,2.42
2022-11-15T15:02:40.987Z,2.03
2022-11-15T15:05:19.411Z,2.30
2022-11-15T15:07:48.768Z,2.22
2022-11-15T15:10:39.584Z,2.20
2022-11-15T15:13:08.538Z,2.08
2022-11-15T15:15:38.632Z,1.65
2022-11-15T15:18:09.477Z,2.53
2022-11-15T15:20:41.261Z,2.42
2022-11-15T15:23:17.616Z,2.65
2022-11-15T15:25:47.313Z,2.72
2022-11-15T15:28:15.832Z,2.17
2022-11-15T15:30:44.065Z,2.47
2022-11-15T15:33:12.351Z,2.85
2022-11-15T15:35:42.244Z,2.37
2022-11-15T15:38:13.093Z,2.40
2022-11-15T15:40:41.670Z,2.50
2022-11-15T15:43:10.303Z,2.45
2022-11-15T15:45:40.335Z,2.60
2022-11-15T15:48:13.328Z,2.70
2022-11-15T15:50:44.245Z,2.55
2022-11-15T15:53:13.756Z,2.62
2022-11-15T15:55:42.427Z,2.15
2022-11-15T15:58:10.693Z,2.37
2022-11-15T16:00:39.833Z,2.37
2022-11-15T16:03:08.444Z,2.70
2022-11-15T16:05:36.804Z,3.15
2022-11-15T16:08:06.689Z,2.70
2022-11-15T16:10:37.691Z,2.70
2022-11-15T16:13:06.132Z,2.70
2022-11-15T16:15:34.683Z,2.42
2022-11-15T16:18:03.627Z,2.67
2022-11-15T16:20:38.311Z,2.95
2022-11-15T16:23:10.961Z,3.08
2022-11-15T16:25:41.872Z,2.97
2022-11-15T16:28:18.751Z,2.95
2022-11-15T16:30:50.018Z,2.45
2022-11-15T16:33:22.301Z,2.90
2022-11-15T16:35:50.483Z,2.80
2022-11-15T16:38:20.298Z,3.53
2022-11-15T16:40:48.809Z,3.10
2022-11-15T16:43:17.122Z,3.45
2022-11-15T16:45:45.305Z,3.10
2022-11-15T16:48:23.708Z,2.83
2022-11-15T16:50:52.511Z,3.10
2022-11-15T16:53:22.336Z,2.80
2022-11-15T16:55:50.709Z,3.35
2022-11-15T16:58:18.883Z,3.45
2022-11-15T17:00:47.367Z,3.90
2022-11-15T17:03:15.469Z,4.28
2022-11-15T17:05:43.672Z,3.83
2022-11-15T17:08:12.135Z,4.40
2022-11-15T17:10:42.413Z,3.72
2022-11-15T17:13:13.207Z,3.97
2022-11-15T17:15:41.742Z,3.70
2022-11-15T17:18:12.318Z,3.95
2022-11-15T17:20:41.906Z,4.10
2022-11-15T17:23:14.501Z,4.05
2022-11-15T17:25:45.711Z,4.05
2022-11-15T17:28:14.105Z,4.97
2022-11-15T17:30:43.839Z,4.07
2022-11-15T17:33:12.226Z,5.00
2022-11-15T17:35:40.712Z,4.60
2022-11-15T17:38:08.847Z,5.65
2022-11-15T17:40:37.093Z,4.62
2022-11-15T17:43:07.852Z,4.37
2022-11-15T17:45:37.519Z,3.95
2022-11-15T17:48:06.219Z,5.30
2022-11-15T17:50:34.372Z,4.93
2022-11-15T17:53:02.587Z,5.35
2022-11-15T17:55:31.048Z,5.47
2022-11-15T17:57:59.149Z,5.25
2022-11-15T18:00:28.750Z,5.32
2022-11-15T18:02:58.327Z,4.93
2022-11-15T18:05:26.536Z,5.80
2022-11-15T18:07:54.750Z,5.72
2022-11-15T18:10:23.403Z,6.10
2022-11-15T18:12:51.586Z,5.10
2022-11-15T18:15:21.349Z,6.10
2022-11-15T18:17:51.140Z,6.10
2022-11-15T18:20:19.729Z,5.32
2022-11-15T18:22:48.256Z,5.72
2022-11-15T18:25:16.826Z,6.65
2022-11-15T18:27:45.132Z,6.03
2022-11-15T18:30:14.126Z,6.72
2022-11-15T18:32:43.003Z,6.28
2022-11-15T18:35:12.739Z,6.30
2022-11-15T18:37:41.026Z,7.07
2022-11-15T18:40:10.755Z,7.80
2022-11-15T18:42:39.271Z,7.15
2022-11-15T18:45:09.604Z,7.97
2022-11-15T18:47:38.589Z,7.45
2022-11-15T18:50:07.497Z,7.03
2022-11-15T18:52:37.093Z,7.37
2022-11-15T18:55:06.202Z,7.12
2022-11-15T18:57:34.513Z,6.75
2022-11-15T19:00:03.051Z,7.70
2022-11-15T19:02:31.892Z,8.32
2022-11-15T19:05:00.190Z,8.13
2022-11-15T19:07:28.472Z,7.68
2022-11-15T19:09:58.396Z,7.07
2022-11-15T19:12:26.678Z,7.50
2022-11-15T19:14:54.902Z,7.95
2022-11-15T19:17:23.443Z,7.05
2022-11-15T19:19:51.771Z,7.30
2022-11-15T19:22:20.076Z,8.23
2022-11-15T19:24:48.651Z,8.00
2022-11-15T19:27:18.425Z,7.75
2022-11-15T19:29:46.974Z,8.20
2022-11-15T19:32:15.657Z,7.93
2022-11-15T19:34:44.062Z,8.65
2022-11-15T19:37:12.406Z,10.40
2022-11-15T19:39:41.486Z,8.85
2022-11-15T19:42:09.742Z,8.27
2022-11-15T19:44:39.288Z,8.02
2022-11-15T19:47:09.323Z,8.20
2022-11-15T19:49:37.711Z,8.18
2022-11-15T19:52:06.298Z,7.22
2022-11-15T19:54:34.864Z,9.02
2022-11-15T19:57:03.200Z,8.80
2022-11-15T19:59:31.537Z,8.82
2022-11-15T20:02:01.707Z,9.07
2022-11-15T20:04:30.163Z,8.60
2022-11-15T20:06:58.281Z,9.00
2022-11-15T20:09:26.656Z,9.85
2022-11-15T20:11:55.436Z,8.68
2022-11-15T20:14:24.145Z,8.05
2022-11-15T20:16:54.469Z,8.68
2022-11-15T20:19:24.679Z,8.32
2022-11-15T20:21:53.217Z,8.18
2022-11-15T20:24:21.540Z,8.35
2022-11-15T20:26:50.055Z,8.90
2022-11-15T20:29:18.155Z,8.55
2022-11-15T20:31:46.777Z,8.32
2022-11-15T20:34:15.972Z,8.35
2022-11-15T20:36:45.594Z,8.75
2022-11-15T20:39:13.774Z,8.75
2022-11-15T20:41:42.388Z,8.40
2022-11-15T20:44:10.659Z,8.95
2022-11-15T20:46:38.813Z,9.40
2022-11-15T20:49:07.438Z,7.75
2022-11-15T20:51:36.450Z,9.57
2022-11-15T20:54:06.285Z,8.80
2022-11-15T20:56:34.758Z,9.23
2022-11-15T20:59:02.925Z,8.95
2022-11-15T21:01:31.944Z,8.27
2022-11-15T21:04:00.826Z,8.77
2022-11-15T21:06:28.968Z,8.68
2022-11-15T21:09:14.662Z,8.75
2022-11-15T21:12:02.359Z,8.88
2022-11-15T21:14:31.259Z,9.25
2022-11-15T21:16:59.759Z,9.13
2022-11-15T21:19:32.682Z,8.57
2022-11-15T21:22:05.539Z,9.15
2022-11-15T21:24:33.798Z,9.35
2022-11-15T21:27:03.603Z,9.52
2022-11-15T21:29:37.598Z,9.38
2022-11-15T21:32:07.427Z,9.15
2022-11-15T21:34:36.050Z,8.70
2022-11-15T21:37:04.333Z,9.38
2022-11-15T21:39:32.462Z,8.77
2022-11-15T21:42:01.042Z,9.00
2022-11-15T21:44:30.889Z,8.70
2022-11-15T21:46:59.287Z,8.35
2022-11-15T21:49:27.789Z,8.85
2022-11-15T21:51:55.947Z,9.48
2022-11-15T21:54:24.168Z,9.55
2022-11-15T21:56:52.648Z,9.77
2022-11-15T21:59:20.735Z,9.73
2022-11-15T22:02:07.607Z,8.95
2022-11-15T22:04:36.073Z,9.38
2022-11-15T22:07:04.267Z,9.10
2022-11-15T22:09:32.369Z,8.52
2022-11-15T22:12:00.932Z,8.38
2022-11-15T22:14:29.177Z,9.02
2022-11-15T22:16:58.623Z,9.70
2022-11-15T22:19:27.214Z,9.00
2022-11-15T22:21:55.490Z,8.93
2022-11-15T22:24:23.683Z,9.40
2022-11-15T22:26:52.901Z,8.77
2022-11-15T22:29:21.286Z,8.15
2022-11-15T22:31:49.550Z,10.10
2022-11-15T22:34:19.707Z,8.43
2022-11-15T22:37:18.038Z,8.88
2022-11-15T22:39:36.478Z,9.57
2022-11-15T22:42:04.782Z,9.05
2022-11-15T22:44:32.999Z,9.73
2022-11-15T22:47:01.439Z,8.73
2022-11-15T22:49:30.951Z,9.13
2022-11-15T22:51:59.335Z,8.43
2022-11-15T22:54:28.835Z,7.57
2022-11-15T22:56:57.322Z,8.90
2022-11-15T22:59:26.209Z,8.73
2022-11-15T23:01:54.701Z,9.07
2022-11-15T23:04:23.310Z,8.88
2022-11-15T23:06:53.089Z,9.20
2022-11-15T23:09:21.846Z,8.63
2022-11-15T23:12:07.594Z,8.55
2022-11-15T23:14:36.087Z,8.70
2022-11-15T23:17:04.317Z,9.20
2022-11-15T23:19:32.567Z,8.20
2022-11-15T23:22:20.378Z,8.07
2022-11-15T23:24:48.635Z,7.57
2022-11-15T23:27:19.974Z,7.72
2022-11-15T23:30:06.186Z,8.57
2022-11-15T23:32:52.186Z,8.73
2022-11-15T23:35:20.750Z,7.32
2022-11-15T23:37:50.980Z,7.62
2022-11-15T23:40:19.385Z,7.78
2022-11-15T23:42:47.753Z,8.02
2022-11-15T23:45:16.373Z,9.10
2022-11-15T23:47:49.757Z,8.18
2022-11-15T23:50:18.621Z,7.75
2022-11-15T23:52:46.838Z,8.25
2022-11-15T23:55:16.638Z,8.27
2022-11-15T23:57:45.160Z,7.62
